»·PEaware :: UAL2398 KSFO-KRNO

UAL2398 :: KSFO-KRNO

FLIGHT INFORMATION

Flight Status: Arrived
Operator:
United Airlines
More flights by this operator :: More flights under this callsign
Pilot: Tyler B. (19112)
Aircraft: BOEING 737-800
(B738)
More flights by this aircraft type
Origin: KSFO San Francisco Intl
United States
Destination: KRNO Reno/Tahoe Intl
United States
More flights between these airports :: More routes between these airports
Route: +TRUKN2 ORRCA HOBOA JUDPU
File this flight plan on PilotEdge
Remarks:
Altitude:
(Current/Filed)
31,000ft
Speed:
(Current/Filed)
469kts
Departed: 11-May-18 06:56 PM
Arrived: 11-May-18 07:32 PM
Distance/Time
Traveled:
167nm/0:36
Distance/Time
To Go:
Arrived

Flight Plot

Page will automatically refresh every two minutes.

Flight plan parsing failed; only flown route is shown


Map Options




Map Legend


Flown Route
Filed Route
Departure Airport
Arrival Airport
Navaid (VOR, NDB)
Fix

Horizontal Profiles

Position Reports

Time Latitude Longitude Heading Altitude Ground
Speed
11-May-18 18:33 37.619186 -122.383517 291 31ft 0kts
11-May-18 18:34 37.619186 -122.383517 291 31ft 0kts
11-May-18 18:35 37.619186 -122.383517 291 31ft 0kts
11-May-18 18:36 37.619186 -122.383517 291 31ft 0kts
11-May-18 18:37 37.619186 -122.383517 291 31ft 0kts
11-May-18 18:38 37.619186 -122.383517 291 31ft 0kts
11-May-18 18:39 37.619186 -122.383517 291 31ft 0kts
11-May-18 18:40 37.619186 -122.383517 291 31ft 0kts
11-May-18 18:41 37.619186 -122.383517 291 31ft 0kts
11-May-18 18:42 37.619186 -122.383517 291 31ft 0kts
11-May-18 18:43 37.619186 -122.383517 291 31ft 0kts
11-May-18 18:44 37.619186 -122.383517 291 31ft 0kts
11-May-18 18:45 37.619186 -122.383517 291 31ft 0kts
11-May-18 18:46 37.618747 -122.383131 1 31ft 2kts
11-May-18 18:47 37.618501 -122.383221 31 31ft 0kts
11-May-18 18:48 37.618501 -122.383221 31 31ft 0kts
11-May-18 18:49 37.618501 -122.383221 31 31ft 0kts
11-May-18 18:50 37.619266 -122.381081 120 31ft 14kts
11-May-18 18:51 37.617952 -122.377602 110 26ft 0kts
11-May-18 18:52 37.617261 -122.375359 112 19ft 20kts
11-May-18 18:53 37.613634 -122.367756 119 11ft 30kts
11-May-18 18:54 37.610543 -122.359464 58 8ft 13kts
11-May-18 18:55 37.610937 -122.359039 27 8ft 0kts
11-May-18 18:56 37.617317 -122.371838 298 17ft 154kts
11-May-18 18:57 37.643044 -122.429452 311 2784ft 224kts
11-May-18 18:58 37.696611 -122.402986 65 6227ft 267kts
11-May-18 18:59 37.708826 -122.306384 79 9751ft 294kts
11-May-18 19:00 37.729598 -122.204196 46 12801ft 315kts
11-May-18 19:01 37.799505 -122.137664 31 16130ft 324kts
11-May-18 19:02 37.873751 -122.071393 30 18927ft 343kts
11-May-18 19:03 37.951149 -122.001609 30 18830ft 339kts
11-May-18 19:04 38.027828 -121.932122 30 18847ft 345kts
11-May-18 19:05 38.104692 -121.862150 29 21662ft 354kts
11-May-18 19:06 38.184909 -121.788931 28 24108ft 368kts
11-May-18 19:07 38.269290 -121.711674 27 26315ft 383kts
11-May-18 19:08 38.356499 -121.631572 27 28287ft 397kts
11-May-18 19:09 38.446751 -121.547902 30 30283ft 409kts
11-May-18 19:10 38.530647 -121.442301 36 30816ft 446kts
11-May-18 19:11 38.614516 -121.333127 37 30781ft 458kts
11-May-18 19:12 38.702610 -121.218115 37 30768ft 457kts
11-May-18 19:13 38.791367 -121.102431 36 30814ft 465kts
11-May-18 19:14 38.882168 -120.984212 35 30384ft 476kts
11-May-18 19:15 38.971317 -120.868036 37 28116ft 441kts
11-May-18 19:16 39.050197 -120.764456 44 25952ft 400kts
11-May-18 19:17 39.061568 -120.625458 93 24832ft 424kts
11-May-18 19:18 39.047392 -120.477180 87 23965ft 415kts
11-May-18 19:19 39.040603 -120.331244 87 23266ft 423kts
11-May-18 19:20 39.034225 -120.189427 87 20460ft 375kts
11-May-18 19:21 39.028771 -120.056831 87 17770ft 370kts
11-May-18 19:22 39.024512 -119.928400 87 15064ft 353kts
11-May-18 19:23 39.027937 -119.807189 60 12408ft 327kts
11-May-18 19:24 39.103791 -119.770282 3 11001ft 305kts
11-May-18 19:25 39.189715 -119.767443 357 10256ft 298kts
11-May-18 19:26 39.260731 -119.769793 0 9159ft 222kts
11-May-18 19:27 39.315432 -119.769897 1 8328ft 190kts
11-May-18 19:28 39.366662 -119.769737 2 7143ft 169kts
11-May-18 19:29 39.406971 -119.769559 3 6202ft 140kts
11-May-18 19:30 39.447436 -119.769575 2 5281ft 147kts
11-May-18 19:31 39.487512 -119.769311 3 4425ft 141kts
11-May-18 19:32 39.503445 -119.770032 322 4410ft 11kts
11-May-18 19:33 39.504217 -119.771436 328 4410ft 13kts
11-May-18 19:34 39.506600 -119.772342 325 4414ft 0kts
11-May-18 19:35 39.506603 -119.772345 325 4414ft 0kts
11-May-18 19:36 39.506603 -119.772345 325 4414ft 0kts

Navigation Log

Ident Type
Flight plan parsing failed, navigation log unavailable